Current Conditions
Mostly Scattered
Clouds



Pressure
30.26 (inHG) - 1024.72 (mb)
Visibility

10.0 (mimiles) - 16.1 (km)
   Temperature
45  °F
7°C
43  °F
Dewpoint
93  %
 Humidity
   Wind Speed
0  mph
0  kts
0  km/h
0  m/s
   Wind Direction
Calm
Due North
   Airport Data
0S9
Location Jefferson County International 5 mi (8.05 km)
Metar :K0S9 091955Z AUTO 00000KT 10SM SCT009 SCT017 07/06 A3026 RMK AO2
Mon 9th December 12:55 pm
   Raw Metar Info
Raw METAR is the most common format in the world for the transmission of observational weather data. It is highly standardized through the International Civil Aviation Organization (ICAO), which allows it to be understood throughout most of the world.
   API Info
Data Provided by
https://www.checkwx.com/weather/0S9
   © Info
CSS/SVG/PHP scripts were developed by weather34.com for use in the weather34 template © 2015-2019

Guide Info provided by Metar-Wikipedia